sensor_id;sensor_type;location;lat;lon;timestamp;pressure;altitude;pressure_sealevel;temperature;humidity
77077;BME280;66003;52.286;104.306;2023-10-09T00:02:11;97166.63;;;14.47;38.14
77077;BME280;66003;52.286;104.306;2023-10-09T00:04:40;97163.16;;;14.47;37.85
77077;BME280;66003;52.286;104.306;2023-10-09T00:07:11;97159.53;;;14.27;37.92
77077;BME280;66003;52.286;104.306;2023-10-09T00:09:39;97166.03;;;14.21;38.00
77077;BME280;66003;52.286;104.306;2023-10-09T00:12:18;97153.84;;;13.95;38.62
77077;BME280;66003;52.286;104.306;2023-10-09T00:14:49;97155.97;;;14.32;38.56
77077;BME280;66003;52.286;104.306;2023-10-09T00:17:17;97165.31;;;14.44;38.22
77077;BME280;66003;52.286;104.306;2023-10-09T00:19:45;97176.63;;;14.70;38.36
77077;BME280;66003;52.286;104.306;2023-10-09T00:22:14;97174.38;;;15.06;37.64
77077;BME280;66003;52.286;104.306;2023-10-09T00:24:49;97172.53;;;15.68;37.26
77077;BME280;66003;52.286;104.306;2023-10-09T00:27:16;97150.53;;;16.31;36.24
77077;BME280;66003;52.286;104.306;2023-10-09T00:29:47;97167.88;;;16.57;35.33
77077;BME280;66003;52.286;104.306;2023-10-09T00:32:15;97158.41;;;16.60;35.14
77077;BME280;66003;52.286;104.306;2023-10-09T00:34:53;97150.53;;;16.77;35.46
77077;BME280;66003;52.286;104.306;2023-10-09T00:37:24;97176.44;;;16.46;35.82
77077;BME280;66003;52.286;104.306;2023-10-09T00:39:52;97165.97;;;16.12;35.72
77077;BME280;66003;52.286;104.306;2023-10-09T00:42:23;97151.31;;;16.32;36.01
77077;BME280;66003;52.286;104.306;2023-10-09T00:44:59;97156.72;;;16.32;36.05
77077;BME280;66003;52.286;104.306;2023-10-09T00:47:34;97155.09;;;15.98;36.42
77077;BME280;66003;52.286;104.306;2023-10-09T00:50:04;97167.72;;;16.03;36.55
77077;BME280;66003;52.286;104.306;2023-10-09T00:52:54;97162.56;;;16.39;36.46
77077;BME280;66003;52.286;104.306;2023-10-09T00:55:34;97165.03;;;16.35;36.25
77077;BME280;66003;52.286;104.306;2023-10-09T00:58:14;97172.06;;;16.96;36.52
77077;BME280;66003;52.286;104.306;2023-10-09T01:00:49;97160.75;;;18.43;35.01
77077;BME280;66003;52.286;104.306;2023-10-09T01:03:19;97150.94;;;20.90;29.98
77077;BME280;66003;52.286;104.306;2023-10-09T01:05:57;97164.09;;;23.41;27.44
77077;BME280;66003;52.286;104.306;2023-10-09T01:08:38;97177.69;;;24.54;24.38
77077;BME280;66003;52.286;104.306;2023-10-09T01:13:50;97187.34;;;24.52;23.24
77077;BME280;66003;52.286;104.306;2023-10-09T01:16:17;97174.09;;;23.25;25.38
77077;BME280;66003;52.286;104.306;2023-10-09T01:18:44;97179.72;;;21.88;27.48
77077;BME280;66003;52.286;104.306;2023-10-09T01:21:12;97171.88;;;20.89;29.13
77077;BME280;66003;52.286;104.306;2023-10-09T01:23:43;97174.91;;;20.41;30.19
77077;BME280;66003;52.286;104.306;2023-10-09T01:26:36;97161.31;;;20.41;30.09
77077;BME280;66003;52.286;104.306;2023-10-09T01:29:06;97186.03;;;19.88;31.16
77077;BME280;66003;52.286;104.306;2023-10-09T01:37:10;97172.03;;;22.52;27.59
77077;BME280;66003;52.286;104.306;2023-10-09T01:39:53;97170.78;;;23.92;26.35
77077;BME280;66003;52.286;104.306;2023-10-09T01:42:24;97182.72;;;24.96;24.31
77077;BME280;66003;52.286;104.306;2023-10-09T01:44:50;97181.66;;;25.00;23.58
77077;BME280;66003;52.286;104.306;2023-10-09T01:47:18;97183.25;;;24.30;26.54
77077;BME280;66003;52.286;104.306;2023-10-09T01:49:45;97185.47;;;23.88;26.47
77077;BME280;66003;52.286;104.306;2023-10-09T01:52:15;97182.81;;;24.71;25.02
77077;BME280;66003;52.286;104.306;2023-10-09T01:54:44;97169.31;;;26.43;23.54
77077;BME280;66003;52.286;104.306;2023-10-09T01:57:16;97177.47;;;28.25;21.42
77077;BME280;66003;52.286;104.306;2023-10-09T01:59:48;97179.41;;;29.32;20.13
77077;BME280;66003;52.286;104.306;2023-10-09T02:02:20;97160.97;;;29.91;19.58
77077;BME280;66003;52.286;104.306;2023-10-09T02:04:58;97161.50;;;30.14;19.64
77077;BME280;66003;52.286;104.306;2023-10-09T02:07:39;97158.69;;;31.44;18.72
77077;BME280;66003;52.286;104.306;2023-10-09T02:10:07;97163.31;;;32.11;17.87
77077;BME280;66003;52.286;104.306;2023-10-09T02:13:06;97169.69;;;33.02;17.67
77077;BME280;66003;52.286;104.306;2023-10-09T02:15:44;97175.00;;;33.38;18.73
77077;BME280;66003;52.286;104.306;2023-10-09T02:18:19;97170.50;;;32.95;19.25
77077;BME280;66003;52.286;104.306;2023-10-09T02:23:29;97170.72;;;33.22;18.59
77077;BME280;66003;52.286;104.306;2023-10-09T02:26:14;97169.44;;;33.38;18.32
77077;BME280;66003;52.286;104.306;2023-10-09T02:29:08;97173.19;;;33.61;17.79
77077;BME280;66003;52.286;104.306;2023-10-09T02:31:40;97174.44;;;32.98;18.58
77077;BME280;66003;52.286;104.306;2023-10-09T02:34:10;97166.56;;;31.17;20.01
77077;BME280;66003;52.286;104.306;2023-10-09T02:36:37;97185.25;;;29.24;22.16
77077;BME280;66003;52.286;104.306;2023-10-09T02:39:07;97177.28;;;27.58;23.84
77077;BME280;66003;52.286;104.306;2023-10-09T02:41:53;97172.13;;;26.66;25.03
77077;BME280;66003;52.286;104.306;2023-10-09T02:44:21;97187.16;;;26.94;26.28
77077;BME280;66003;52.286;104.306;2023-10-09T02:46:55;97173.72;;;25.93;26.11
77077;BME280;66003;52.286;104.306;2023-10-09T02:49:26;97187.06;;;26.30;26.87
77077;BME280;66003;52.286;104.306;2023-10-09T02:51:53;97180.63;;;27.71;25.05
77077;BME280;66003;52.286;104.306;2023-10-09T02:54:19;97176.94;;;28.16;23.81
77077;BME280;66003;52.286;104.306;2023-10-09T02:57:00;97174.56;;;28.78;23.59
77077;BME280;66003;52.286;104.306;2023-10-09T02:59:34;97174.34;;;28.60;23.65
77077;BME280;66003;52.286;104.306;2023-10-09T03:02:00;97171.56;;;27.21;24.53
77077;BME280;66003;52.286;104.306;2023-10-09T03:04:27;97169.34;;;26.27;26.20
77077;BME280;66003;52.286;104.306;2023-10-09T03:06:57;97151.53;;;25.47;27.29
77077;BME280;66003;52.286;104.306;2023-10-09T03:09:25;97162.75;;;25.27;26.74
77077;BME280;66003;52.286;104.306;2023-10-09T03:11:59;97169.91;;;24.56;28.90
77077;BME280;66003;52.286;104.306;2023-10-09T03:14:29;97175.56;;;24.63;28.50
77077;BME280;66003;52.286;104.306;2023-10-09T03:16:57;97187.75;;;24.38;29.14
77077;BME280;66003;52.286;104.306;2023-10-09T03:19:33;97187.69;;;24.22;29.04
77077;BME280;66003;52.286;104.306;2023-10-09T03:22:05;97181.91;;;23.99;29.55
77077;BME280;66003;52.286;104.306;2023-10-09T03:24:35;97174.53;;;24.00;29.59
77077;BME280;66003;52.286;104.306;2023-10-09T03:27:03;97168.94;;;23.96;29.39
77077;BME280;66003;52.286;104.306;2023-10-09T03:29:29;97165.53;;;23.99;29.46
77077;BME280;66003;52.286;104.306;2023-10-09T03:31:56;97171.28;;;23.82;29.97
77077;BME280;66003;52.286;104.306;2023-10-09T03:34:23;97172.13;;;23.98;29.26
77077;BME280;66003;52.286;104.306;2023-10-09T03:36:53;97175.50;;;24.07;29.44
77077;BME280;66003;52.286;104.306;2023-10-09T03:39:46;97179.25;;;24.27;29.54
77077;BME280;66003;52.286;104.306;2023-10-09T03:42:13;97160.97;;;24.03;29.18
77077;BME280;66003;52.286;104.306;2023-10-09T03:44:46;97173.56;;;24.08;29.70
77077;BME280;66003;52.286;104.306;2023-10-09T03:47:21;97166.84;;;24.30;29.83
77077;BME280;66003;52.286;104.306;2023-10-09T03:50:05;97166.59;;;24.78;28.94
77077;BME280;66003;52.286;104.306;2023-10-09T03:52:49;97149.91;;;24.68;29.14
77077;BME280;66003;52.286;104.306;2023-10-09T03:55:15;97157.72;;;25.44;27.98
77077;BME280;66003;52.286;104.306;2023-10-09T03:57:41;97158.63;;;25.01;28.84
77077;BME280;66003;52.286;104.306;2023-10-09T04:00:11;97161.75;;;24.88;28.90
77077;BME280;66003;52.286;104.306;2023-10-09T04:02:42;97159.09;;;24.75;29.18
77077;BME280;66003;52.286;104.306;2023-10-09T04:05:08;97175.59;;;24.79;28.69
77077;BME280;66003;52.286;104.306;2023-10-09T04:07:34;97165.28;;;25.51;28.04
77077;BME280;66003;52.286;104.306;2023-10-09T04:10:00;97162.97;;;24.74;28.44
77077;BME280;66003;52.286;104.306;2023-10-09T04:12:49;97159.88;;;24.60;29.22
77077;BME280;66003;52.286;104.306;2023-10-09T04:15:18;97158.88;;;24.53;28.92
77077;BME280;66003;52.286;104.306;2023-10-09T04:17:49;97153.53;;;24.28;29.55
77077;BME280;66003;52.286;104.306;2023-10-09T04:20:17;97146.59;;;24.19;29.89
77077;BME280;66003;52.286;104.306;2023-10-09T04:22:43;97154.22;;;24.25;29.92
77077;BME280;66003;52.286;104.306;2023-10-09T04:25:22;97166.84;;;24.30;29.52
77077;BME280;66003;52.286;104.306;2023-10-09T04:27:58;97151.19;;;24.02;29.93
77077;BME280;66003;52.286;104.306;2023-10-09T04:30:43;97165.06;;;23.97;30.16
77077;BME280;66003;52.286;104.306;2023-10-09T04:33:09;97165.22;;;24.57;29.64
77077;BME280;66003;52.286;104.306;2023-10-09T04:36:06;97151.22;;;23.90;30.22
77077;BME280;66003;52.286;104.306;2023-10-09T04:38:44;97159.75;;;23.89;30.07
77077;BME280;66003;52.286;104.306;2023-10-09T04:41:30;97165.00;;;23.82;30.43
77077;BME280;66003;52.286;104.306;2023-10-09T04:44:18;97160.31;;;23.94;30.16
77077;BME280;66003;52.286;104.306;2023-10-09T04:46:55;97156.31;;;24.04;30.24
77077;BME280;66003;52.286;104.306;2023-10-09T04:49:38;97152.75;;;24.16;30.04
77077;BME280;66003;52.286;104.306;2023-10-09T04:52:22;97154.91;;;24.22;29.99
77077;BME280;66003;52.286;104.306;2023-10-09T04:54:51;97149.44;;;24.22;30.11
77077;BME280;66003;52.286;104.306;2023-10-09T04:57:36;97152.81;;;24.31;29.77
77077;BME280;66003;52.286;104.306;2023-10-09T05:00:10;97157.16;;;24.20;29.99
77077;BME280;66003;52.286;104.306;2023-10-09T05:03:03;97145.09;;;24.21;29.88
77077;BME280;66003;52.286;104.306;2023-10-09T05:05:50;97144.78;;;24.23;30.00
77077;BME280;66003;52.286;104.306;2023-10-09T05:08:28;97151.09;;;24.39;29.66
77077;BME280;66003;52.286;104.306;2023-10-09T05:11:02;97150.41;;;24.42;29.75
77077;BME280;66003;52.286;104.306;2023-10-09T05:13:34;97149.22;;;24.43;29.61
77077;BME280;66003;52.286;104.306;2023-10-09T05:16:16;97164.00;;;24.54;30.97
77077;BME280;66003;52.286;104.306;2023-10-09T05:18:52;97149.78;;;24.48;29.48
77077;BME280;66003;52.286;104.306;2023-10-09T05:21:23;97139.25;;;24.63;29.15
77077;BME280;66003;52.286;104.306;2023-10-09T05:24:11;97147.53;;;24.66;28.88
77077;BME280;66003;52.286;104.306;2023-10-09T05:26:47;97137.38;;;24.67;28.35
77077;BME280;66003;52.286;104.306;2023-10-09T05:29:15;97151.56;;;24.57;28.52
77077;BME280;66003;52.286;104.306;2023-10-09T05:32:05;97136.91;;;24.49;28.76
77077;BME280;66003;52.286;104.306;2023-10-09T05:34:32;97135.31;;;24.48;28.17
77077;BME280;66003;52.286;104.306;2023-10-09T05:37:25;97141.47;;;24.45;28.45
77077;BME280;66003;52.286;104.306;2023-10-09T05:39:53;97146.03;;;24.53;28.57
77077;BME280;66003;52.286;104.306;2023-10-09T05:45:16;97129.19;;;24.67;28.08
77077;BME280;66003;52.286;104.306;2023-10-09T05:47:44;97119.03;;;24.52;28.40
77077;BME280;66003;52.286;104.306;2023-10-09T05:50:43;97133.88;;;24.66;28.13
77077;BME280;66003;52.286;104.306;2023-10-09T05:53:22;97134.00;;;24.58;28.78
77077;BME280;66003;52.286;104.306;2023-10-09T05:56:06;97128.47;;;24.70;29.77
77077;BME280;66003;52.286;104.306;2023-10-09T05:58:51;97116.75;;;24.26;29.04
77077;BME280;66003;52.286;104.306;2023-10-09T06:01:36;97119.69;;;24.21;29.24
77077;BME280;66003;52.286;104.306;2023-10-09T06:04:20;97119.63;;;24.17;29.49
77077;BME280;66003;52.286;104.306;2023-10-09T06:06:51;97115.97;;;24.25;29.11
77077;BME280;66003;52.286;104.306;2023-10-09T06:09:26;97106.63;;;24.26;28.24
77077;BME280;66003;52.286;104.306;2023-10-09T06:12:16;97116.66;;;24.50;28.06
77077;BME280;66003;52.286;104.306;2023-10-09T06:15:15;97091.06;;;24.42;27.33
77077;BME280;66003;52.286;104.306;2023-10-09T06:17:56;97081.81;;;24.47;28.07
77077;BME280;66003;52.286;104.306;2023-10-09T06:20:42;97090.38;;;24.61;27.99
77077;BME280;66003;52.286;104.306;2023-10-09T06:23:30;97088.38;;;24.74;27.71
77077;BME280;66003;52.286;104.306;2023-10-09T06:26:14;97100.47;;;25.04;27.75
77077;BME280;66003;52.286;104.306;2023-10-09T06:28:51;97094.75;;;25.09;27.43
77077;BME280;66003;52.286;104.306;2023-10-09T06:31:37;97079.31;;;25.01;27.96
77077;BME280;66003;52.286;104.306;2023-10-09T06:34:33;97077.00;;;25.03;27.25
77077;BME280;66003;52.286;104.306;2023-10-09T06:37:01;97086.63;;;25.13;27.34
77077;BME280;66003;52.286;104.306;2023-10-09T06:39:44;97086.97;;;25.11;27.19
77077;BME280;66003;52.286;104.306;2023-10-09T06:42:16;97073.91;;;25.05;27.17
77077;BME280;66003;52.286;104.306;2023-10-09T06:45:07;97071.00;;;25.13;27.54
77077;BME280;66003;52.286;104.306;2023-10-09T06:47:46;97082.56;;;25.23;26.97
77077;BME280;66003;52.286;104.306;2023-10-09T06:50:25;97088.63;;;25.16;26.38
77077;BME280;66003;52.286;104.306;2023-10-09T06:52:55;97083.59;;;25.18;26.66
77077;BME280;66003;52.286;104.306;2023-10-09T06:55:46;97067.47;;;25.13;26.58
77077;BME280;66003;52.286;104.306;2023-10-09T06:58:16;97063.41;;;25.07;26.72
77077;BME280;66003;52.286;104.306;2023-10-09T07:00:49;97076.50;;;24.98;26.78
77077;BME280;66003;52.286;104.306;2023-10-09T07:03:34;97071.03;;;24.98;26.76
77077;BME280;66003;52.286;104.306;2023-10-09T07:06:07;97079.38;;;25.05;26.16
77077;BME280;66003;52.286;104.306;2023-10-09T07:08:53;97077.09;;;25.07;26.26
77077;BME280;66003;52.286;104.306;2023-10-09T07:11:33;97062.97;;;24.89;26.41
77077;BME280;66003;52.286;104.306;2023-10-09T07:14:09;97082.91;;;25.05;26.10
77077;BME280;66003;52.286;104.306;2023-10-09T07:16:58;97062.00;;;25.13;25.95
77077;BME280;66003;52.286;104.306;2023-10-09T07:19:26;97080.25;;;25.25;25.70
77077;BME280;66003;52.286;104.306;2023-10-09T07:22:13;97073.06;;;25.01;25.68
77077;BME280;66003;52.286;104.306;2023-10-09T07:24:51;97080.19;;;25.56;26.12
77077;BME280;66003;52.286;104.306;2023-10-09T07:27:50;97086.34;;;25.18;25.53
77077;BME280;66003;52.286;104.306;2023-10-09T07:30:25;97070.13;;;24.94;26.04
77077;BME280;66003;52.286;104.306;2023-10-09T07:33:02;97080.97;;;25.22;26.14
77077;BME280;66003;52.286;104.306;2023-10-09T07:35:45;97084.59;;;25.10;26.53
77077;BME280;66003;52.286;104.306;2023-10-09T07:38:25;97079.72;;;25.03;25.99
77077;BME280;66003;52.286;104.306;2023-10-09T07:41:02;97082.09;;;25.21;25.81
77077;BME280;66003;52.286;104.306;2023-10-09T07:43:36;97086.09;;;25.23;25.64
77077;BME280;66003;52.286;104.306;2023-10-09T07:46:07;97072.06;;;25.09;25.58
77077;BME280;66003;52.286;104.306;2023-10-09T07:48:52;97090.66;;;25.19;25.16
77077;BME280;66003;52.286;104.306;2023-10-09T07:51:22;97078.47;;;25.16;24.96
77077;BME280;66003;52.286;104.306;2023-10-09T07:53:52;97071.72;;;25.10;25.22
77077;BME280;66003;52.286;104.306;2023-10-09T07:56:34;97065.16;;;25.15;25.74
77077;BME280;66003;52.286;104.306;2023-10-09T07:59:11;97056.53;;;25.13;25.78
77077;BME280;66003;52.286;104.306;2023-10-09T08:01:41;97072.47;;;25.27;25.46
77077;BME280;66003;52.286;104.306;2023-10-09T08:04:40;97068.44;;;25.21;25.57
77077;BME280;66003;52.286;104.306;2023-10-09T08:07:16;97066.56;;;25.25;25.57
77077;BME280;66003;52.286;104.306;2023-10-09T08:09:46;97080.16;;;25.21;25.78
77077;BME280;66003;52.286;104.306;2023-10-09T08:12:17;97067.53;;;25.16;25.95
77077;BME280;66003;52.286;104.306;2023-10-09T08:15:17;97076.63;;;25.21;26.14
77077;BME280;66003;52.286;104.306;2023-10-09T08:17:54;97077.53;;;25.25;25.67
77077;BME280;66003;52.286;104.306;2023-10-09T08:20:36;97069.84;;;25.14;25.69
77077;BME280;66003;52.286;104.306;2023-10-09T08:23:21;97065.25;;;25.18;25.95
77077;BME280;66003;52.286;104.306;2023-10-09T08:26:18;97049.59;;;25.00;25.78
77077;BME280;66003;52.286;104.306;2023-10-09T08:28:58;97053.03;;;24.97;26.30
77077;BME280;66003;52.286;104.306;2023-10-09T08:31:43;97069.16;;;25.02;25.85
77077;BME280;66003;52.286;104.306;2023-10-09T08:34:14;97061.44;;;24.92;26.06
77077;BME280;66003;52.286;104.306;2023-10-09T08:36:51;97057.59;;;24.93;25.81
77077;BME280;66003;52.286;104.306;2023-10-09T08:39:20;97071.81;;;24.98;25.86
77077;BME280;66003;52.286;104.306;2023-10-09T08:41:59;97066.69;;;24.97;25.65
77077;BME280;66003;52.286;104.306;2023-10-09T08:44:28;97057.41;;;24.86;25.91
77077;BME280;66003;52.286;104.306;2023-10-09T08:46:58;97050.53;;;24.76;25.83
77077;BME280;66003;52.286;104.306;2023-10-09T08:49:26;97077.69;;;24.84;25.75
77077;BME280;66003;52.286;104.306;2023-10-09T08:51:53;97064.28;;;24.79;25.78
77077;BME280;66003;52.286;104.306;2023-10-09T08:54:20;97056.81;;;24.76;25.49
77077;BME280;66003;52.286;104.306;2023-10-09T08:56:47;97059.00;;;24.71;25.48
77077;BME280;66003;52.286;104.306;2023-10-09T08:59:19;97054.75;;;24.73;25.67
77077;BME280;66003;52.286;104.306;2023-10-09T09:01:47;97065.16;;;24.68;25.84
77077;BME280;66003;52.286;104.306;2023-10-09T09:04:40;97068.00;;;24.71;25.49
77077;BME280;66003;52.286;104.306;2023-10-09T09:07:29;97069.41;;;24.81;25.58
77077;BME280;66003;52.286;104.306;2023-10-09T10:31:05;97087.81;;;32.32;28.00
77077;BME280;66003;52.286;104.306;2023-10-09T10:36:25;97109.16;;;33.00;25.46
77077;BME280;66003;52.286;104.306;2023-10-09T10:39:02;97111.22;;;32.89;25.60
77077;BME280;66003;52.286;104.306;2023-10-09T10:41:34;97109.38;;;32.65;25.68
77077;BME280;66003;52.286;104.306;2023-10-09T10:44:37;97118.19;;;33.08;29.46
77077;BME280;66003;52.286;104.306;2023-10-09T10:47:07;97116.41;;;32.80;36.22
77077;BME280;66003;52.286;104.306;2023-10-09T10:49:54;97103.19;;;33.91;28.37
77077;BME280;66003;52.286;104.306;2023-10-09T10:52:47;97113.16;;;34.19;27.29
77077;BME280;66003;52.286;104.306;2023-10-09T10:55:23;97123.94;;;34.14;26.60
77077;BME280;66003;52.286;104.306;2023-10-09T11:04:40;97134.00;;;30.32;26.84
77077;BME280;66003;52.286;104.306;2023-10-09T11:07:10;97130.69;;;29.98;27.02
77077;BME280;66003;52.286;104.306;2023-10-09T11:12:16;97140.09;;;24.90;27.27
77077;BME280;66003;52.286;104.306;2023-10-09T11:14:50;97143.59;;;24.87;29.44
